Time,TemperatureF,DewpointF,PressureIn,WindDirection,WindDirectionDegrees,WindSpeedMPH,WindSpeedGustMPH,Humidity,HourlyPrecipIn,Conditions,Clouds,dailyrainin,SoftwareType,DateUTC
2013-04-07 00:00:00,30.5,13.6,30.30,SSW,209,0.0,0.0,49,0.00,,,0.00,LWC V2.00 B2112,2013-04-07 04:00:00,
2013-04-07 00:01:00,30.5,13.6,30.29,SSW,209,0.0,0.0,49,0.00,,,0.00,LWC V2.00 B2112,2013-04-07 04:01:00,
2013-04-07 00:04:00,30.4,13.6,30.29,SSW,209,0.0,0.0,49,0.00,,,0.00,LWC V2.00 B2112,2013-04-07 04:04:00,
2013-04-07 00:09:00,30.7,15.6,30.29,SSW,209,0.0,0.0,53,0.00,,,0.00,LWC V2.00 B2112,2013-04-07 04:09:00,
2013-04-07 00:14:00,30.8,16.1,30.29,SSW,209,0.0,0.0,54,0.00,,,0.00,LWC V2.00 B2112,2013-04-07 04:14:00,
2013-04-07 00:19:00,31.0,16.3,30.29,SSW,209,0.0,0.0,54,0.00,,,0.00,LWC V2.00 B2112,2013-04-07 04:19:00,
2013-04-07 00:24:00,31.2,16.1,30.29,SSW,209,0.0,0.0,53,0.00,,,0.00,LWC V2.00 B2112,2013-04-07 04:24:00,
2013-04-07 00:29:00,30.8,14.4,30.29,SSW,209,0.0,0.0,50,0.00,,,0.00,LWC V2.00 B2112,2013-04-07 04:29:00,
2013-04-07 00:34:00,31.0,14.1,30.29,SSW,209,0.0,0.0,49,0.00,,,0.00,LWC V2.00 B2112,2013-04-07 04:34:00,
2013-04-07 00:39:00,30.8,14.4,30.29,SSW,209,0.0,0.0,50,0.00,,,0.00,LWC V2.00 B2112,2013-04-07 04:39:00,
2013-04-07 00:44:00,30.8,14.4,30.29,SSW,209,0.0,0.0,50,0.00,,,0.00,LWC V2.00 B2112,2013-04-07 04:44:00,
2013-04-07 00:49:00,30.5,13.6,30.29,SSW,209,0.0,0.0,49,0.00,,,0.00,LWC V2.00 B2112,2013-04-07 04:49:00,
2013-04-07 00:54:00,30.5,15.0,30.29,SSW,209,0.0,0.0,52,0.00,,,0.00,LWC V2.00 B2112,2013-04-07 04:54:00,
2013-04-07 00:59:00,30.3,14.8,30.28,SSW,209,0.0,0.0,52,0.00,,,0.00,LWC V2.00 B2112,2013-04-07 04:59:00,
2013-04-07 01:04:00,29.9,15.3,30.28,SSW,209,0.0,0.0,54,0.00,,,0.00,LWC V2.00 B2112,2013-04-07 05:04:00,
2013-04-07 01:09:00,29.6,15.0,30.28,SSW,209,0.0,0.0,54,0.00,,,0.00,LWC V2.00 B2112,2013-04-07 05:09:00,
2013-04-07 01:14:00,29.7,14.7,30.28,SSW,209,0.0,0.0,53,0.00,,,0.00,LWC V2.00 B2112,2013-04-07 05:14:00,
2013-04-07 01:19:00,29.6,14.6,30.28,SSW,209,0.0,0.0,53,0.00,,,0.00,LWC V2.00 B2112,2013-04-07 05:19:00,
2013-04-07 01:24:00,30.3,14.8,30.28,SSW,209,0.0,0.0,52,0.00,,,0.00,LWC V2.00 B2112,2013-04-07 05:24:00,
2013-04-07 01:29:00,30.0,13.6,30.28,SSW,209,0.0,0.0,50,0.00,,,0.00,LWC V2.00 B2112,2013-04-07 05:29:00,
2013-04-07 01:34:00,29.7,14.3,30.28,SW,229,0.0,0.0,52,0.00,,,0.00,LWC V2.00 B2112,2013-04-07 05:34:00,
2013-04-07 01:39:00,29.3,13.9,30.28,SW,229,0.0,0.0,52,0.00,,,0.00,LWC V2.00 B2112,2013-04-07 05:39:00,
2013-04-07 01:44:00,29.3,13.9,30.27,SW,229,0.0,0.0,52,0.00,,,0.00,LWC V2.00 B2112,2013-04-07 05:44:00,
2013-04-07 01:49:00,29.7,15.1,30.27,SW,229,0.0,0.0,54,0.00,,,0.00,LWC V2.00 B2112,2013-04-07 05:49:00,
2013-04-07 01:54:00,29.5,15.8,30.27,SW,229,0.0,0.0,56,0.00,,,0.00,LWC V2.00 B2112,2013-04-07 05:54:00,
2013-04-07 01:59:00,29.0,15.7,30.27,SW,229,0.0,0.0,57,0.00,,,0.00,LWC V2.00 B2112,2013-04-07 05:59:00,
2013-04-07 02:04:00,28.6,14.5,30.27,SW,229,0.0,0.0,55,0.00,,,0.00,LWC V2.00 B2112,2013-04-07 06:04:00,
2013-04-07 02:09:00,28.4,14.3,30.27,SW,229,0.0,0.0,55,0.00,,,0.00,LWC V2.00 B2112,2013-04-07 06:09:00,
2013-04-07 02:14:00,28.8,14.7,30.27,SW,229,0.0,0.0,55,0.00,,,0.00,LWC V2.00 B2112,2013-04-07 06:14:00,
2013-04-07 02:19:00,29.2,15.5,30.27,SW,229,0.0,0.0,56,0.00,,,0.00,LWC V2.00 B2112,2013-04-07 06:19:00,
2013-04-07 02:24:00,29.3,15.2,30.27,SW,229,0.0,0.0,55,0.00,,,0.00,LWC V2.00 B2112,2013-04-07 06:24:00,
2013-04-07 02:29:00,28.8,15.1,30.26,SW,229,0.0,0.0,56,0.00,,,0.00,LWC V2.00 B2112,2013-04-07 06:29:00,
2013-04-07 02:34:00,28.8,15.1,30.26,SW,229,0.0,0.0,56,0.00,,,0.00,LWC V2.00 B2112,2013-04-07 06:34:00,
2013-04-07 02:39:00,29.1,15.0,30.26,SW,229,0.0,0.0,55,0.00,,,0.00,LWC V2.00 B2112,2013-04-07 06:39:00,
2013-04-07 02:44:00,29.0,14.9,30.26,SW,229,0.0,0.0,55,0.00,,,0.00,LWC V2.00 B2112,2013-04-07 06:44:00,
2013-04-07 02:49:00,28.6,14.9,30.26,SW,229,0.0,0.0,56,0.00,,,0.00,LWC V2.00 B2112,2013-04-07 06:49:00,
2013-04-07 02:54:00,28.3,14.2,30.26,SW,229,0.0,0.0,55,0.00,,,0.00,LWC V2.00 B2112,2013-04-07 06:54:00,
2013-04-07 02:59:00,28.1,14.9,30.26,WSW,243,0.0,0.0,57,0.00,,,0.00,LWC V2.00 B2112,2013-04-07 06:59:00,
2013-04-07 03:04:00,27.7,14.9,30.26,NW,311,0.0,0.0,58,0.00,,,0.00,LWC V2.00 B2112,2013-04-07 07:04:00,
2013-04-07 03:09:00,27.5,14.7,30.25,NW,311,0.0,0.0,58,0.00,,,0.00,LWC V2.00 B2112,2013-04-07 07:09:00,
2013-04-07 03:14:00,27.4,15.0,30.25,NW,311,0.0,0.0,59,0.00,,,0.00,LWC V2.00 B2112,2013-04-07 07:14:00,
2013-04-07 03:19:00,27.4,15.0,30.25,NW,311,0.0,0.0,59,0.00,,,0.00,LWC V2.00 B2112,2013-04-07 07:19:00,
2013-04-07 03:24:00,27.5,15.1,30.25,NW,311,0.0,0.0,59,0.00,,,0.00,LWC V2.00 B2112,2013-04-07 07:24:00,
2013-04-07 03:29:00,27.9,15.5,30.25,NW,311,0.0,0.0,59,0.00,,,0.00,LWC V2.00 B2112,2013-04-07 07:29:00,
2013-04-07 03:34:00,27.9,15.5,30.25,NW,311,0.0,0.0,59,0.00,,,0.00,LWC V2.00 B2112,2013-04-07 07:34:00,
2013-04-07 03:39:00,27.9,15.5,30.25,NW,311,0.0,0.0,59,0.00,,,0.00,LWC V2.00 B2112,2013-04-07 07:39:00,
2013-04-07 03:45:00,27.9,15.8,30.25,NW,311,0.0,0.0,60,0.00,,,0.00,LWC V2.00 B2112,2013-04-07 07:45:00,
2013-04-07 03:50:00,27.5,15.5,30.24,NW,311,0.0,0.0,60,0.00,,,0.00,LWC V2.00 B2112,2013-04-07 07:50:00,
2013-04-07 03:55:00,27.5,15.8,30.24,NW,311,0.0,0.0,61,0.00,,,0.00,LWC V2.00 B2112,2013-04-07 07:55:00,
2013-04-07 04:00:00,27.6,15.9,30.24,NW,311,0.0,0.0,61,0.00,,,0.00,LWC V2.00 B2112,2013-04-07 08:00:00,
2013-04-07 04:05:00,27.5,15.1,30.24,NW,311,0.0,0.0,59,0.00,,,0.00,LWC V2.00 B2112,2013-04-07 08:05:00,
2013-04-07 04:10:00,27.5,14.7,30.24,NW,311,0.0,0.0,58,0.00,,,0.00,LWC V2.00 B2112,2013-04-07 08:10:00,
2013-04-07 04:15:00,27.4,16.5,30.24,NW,311,0.0,0.0,63,0.00,,,0.00,LWC V2.00 B2112,2013-04-07 08:15:00,
2013-04-07 04:20:00,27.3,17.1,30.24,NW,311,0.0,0.0,65,0.00,,,0.00,LWC V2.00 B2112,2013-04-07 08:20:00,
2013-04-07 04:25:00,27.5,17.7,30.24,NW,311,0.0,0.0,66,0.00,,,0.00,LWC V2.00 B2112,2013-04-07 08:25:00,
2013-04-07 04:30:00,27.5,17.7,30.24,NW,311,0.0,0.0,66,0.00,,,0.00,LWC V2.00 B2112,2013-04-07 08:30:00,
2013-04-07 04:35:00,27.5,18.0,30.24,NW,311,0.0,0.0,67,0.00,,,0.00,LWC V2.00 B2112,2013-04-07 08:35:00,
2013-04-07 04:40:00,27.3,16.8,30.24,NW,311,0.0,0.0,64,0.00,,,0.00,LWC V2.00 B2112,2013-04-07 08:40:00,
2013-04-07 04:45:00,27.2,17.4,30.24,NW,311,0.0,0.0,66,0.00,,,0.00,LWC V2.00 B2112,2013-04-07 08:45:00,
2013-04-07 04:50:00,27.0,17.5,30.24,NW,311,0.0,0.0,67,0.00,,,0.00,LWC V2.00 B2112,2013-04-07 08:50:00,
2013-04-07 04:55:00,26.9,17.8,30.24,NW,311,0.0,0.0,68,0.00,,,0.00,LWC V2.00 B2112,2013-04-07 08:55:00,
2013-04-07 05:00:00,26.8,17.3,30.24,NW,311,0.0,0.0,67,0.00,,,0.00,LWC V2.00 B2112,2013-04-07 09:00:00,
2013-04-07 05:05:00,26.7,17.6,30.24,NW,311,0.0,0.0,68,0.00,,,0.00,LWC V2.00 B2112,2013-04-07 09:05:00,
2013-04-07 05:10:00,26.7,16.5,30.24,NW,311,0.0,0.0,65,0.00,,,0.00,LWC V2.00 B2112,2013-04-07 09:10:00,
2013-04-07 05:15:00,26.7,16.2,30.24,NW,311,0.0,0.0,64,0.00,,,0.00,LWC V2.00 B2112,2013-04-07 09:15:00,
2013-04-07 05:20:00,26.5,16.4,30.24,NW,311,0.0,0.0,65,0.00,,,0.00,LWC V2.00 B2112,2013-04-07 09:20:00,
2013-04-07 05:25:00,26.5,16.7,30.24,NW,311,0.0,0.0,66,0.00,,,0.00,LWC V2.00 B2112,2013-04-07 09:25:00,
2013-04-07 05:30:00,26.6,16.4,30.24,NW,311,0.0,0.0,65,0.00,,,0.00,LWC V2.00 B2112,2013-04-07 09:30:00,
2013-04-07 05:35:00,26.9,16.4,30.24,NW,311,0.0,0.0,64,0.00,,,0.00,LWC V2.00 B2112,2013-04-07 09:35:00,
2013-04-07 05:40:00,27.5,17.3,30.24,NW,311,0.0,0.0,65,0.00,,,0.00,LWC V2.00 B2112,2013-04-07 09:40:00,
2013-04-07 05:45:00,28.0,17.1,30.24,NW,311,0.0,0.0,63,0.00,,,0.00,LWC V2.00 B2112,2013-04-07 09:45:00,
2013-04-07 05:50:00,27.9,16.2,30.25,NW,311,0.0,0.0,61,0.00,,,0.00,LWC V2.00 B2112,2013-04-07 09:50:00,
2013-04-07 05:55:00,27.8,17.2,30.25,NW,311,0.0,0.0,64,0.00,,,0.00,LWC V2.00 B2112,2013-04-07 09:55:00,
2013-04-07 06:00:00,27.8,18.3,30.25,NW,311,0.0,0.0,67,0.00,,,0.00,LWC V2.00 B2112,2013-04-07 10:00:00,
2013-04-07 06:05:00,27.6,17.4,30.25,NW,311,0.0,0.0,65,0.00,,,0.00,LWC V2.00 B2112,2013-04-07 10:05:00,
2013-04-07 06:10:00,27.4,17.9,30.25,NW,311,0.0,0.0,67,0.00,,,0.00,LWC V2.00 B2112,2013-04-07 10:10:00,
2013-04-07 06:15:00,27.2,18.1,30.25,NW,311,0.0,0.0,68,0.00,,,0.00,LWC V2.00 B2112,2013-04-07 10:15:00,
2013-04-07 06:20:00,27.1,18.0,30.25,NW,311,0.0,0.0,68,0.00,,,0.00,LWC V2.00 B2112,2013-04-07 10:20:00,
2013-04-07 06:25:00,26.8,17.0,30.26,NW,311,0.0,0.0,66,0.00,,,0.00,LWC V2.00 B2112,2013-04-07 10:25:00,
2013-04-07 06:30:00,26.6,17.1,30.26,NW,311,0.0,0.0,67,0.00,,,0.00,LWC V2.00 B2112,2013-04-07 10:30:00,
2013-04-07 06:35:00,26.8,17.0,30.26,NW,311,0.0,0.0,66,0.00,,,0.00,LWC V2.00 B2112,2013-04-07 10:35:00,
2013-04-07 06:40:00,27.2,17.7,30.26,NW,311,0.0,0.0,67,0.00,,,0.00,LWC V2.00 B2112,2013-04-07 10:40:00,
2013-04-07 06:45:00,27.2,18.1,30.26,NW,307,0.0,0.0,68,0.00,,,0.00,LWC V2.00 B2112,2013-04-07 10:45:00,
2013-04-07 06:50:00,27.4,17.9,30.26,NW,306,0.0,0.0,67,0.00,,,0.00,LWC V2.00 B2112,2013-04-07 10:50:00,
2013-04-07 06:55:00,27.6,18.8,30.27,SSW,207,0.0,0.0,69,0.00,,,0.00,LWC V2.00 B2112,2013-04-07 10:55:00,
2013-04-07 07:00:00,27.8,19.0,30.27,SSW,207,0.0,0.0,69,0.00,,,0.00,LWC V2.00 B2112,2013-04-07 11:00:00,
2013-04-07 07:05:00,28.5,18.6,30.27,SSW,207,0.0,0.0,66,0.00,,,0.00,LWC V2.00 B2112,2013-04-07 11:05:00,
2013-04-07 07:10:00,28.6,19.7,30.27,SSW,194,0.0,1.0,69,0.00,,,0.00,LWC V2.00 B2112,2013-04-07 11:10:00,
2013-04-07 07:15:00,28.5,18.6,30.27,SSW,194,0.0,0.0,66,0.00,,,0.00,LWC V2.00 B2112,2013-04-07 11:15:00,
2013-04-07 07:20:00,28.5,20.0,30.27,South,184,0.0,0.0,70,0.00,,,0.00,LWC V2.00 B2112,2013-04-07 11:20:00,
2013-04-07 07:25:00,29.2,20.0,30.27,South,184,0.0,0.0,68,0.00,,,0.00,LWC V2.00 B2112,2013-04-07 11:25:00,
2013-04-07 07:30:00,29.6,19.3,30.27,South,184,0.0,0.0,65,0.00,,,0.00,LWC V2.00 B2112,2013-04-07 11:30:00,
2013-04-07 07:35:00,29.9,19.2,30.27,ESE,105,2.0,2.0,64,0.00,,,0.00,LWC V2.00 B2112,2013-04-07 11:35:00,
2013-04-07 07:40:00,29.8,19.1,30.27,ESE,119,0.0,1.0,64,0.00,,,0.00,LWC V2.00 B2112,2013-04-07 11:40:00,
2013-04-07 07:45:00,29.8,18.8,30.27,ESE,119,0.0,0.0,63,0.00,,,0.00,LWC V2.00 B2112,2013-04-07 11:45:00,
2013-04-07 07:50:00,29.7,18.7,30.27,SE,138,1.0,2.0,63,0.00,,,0.00,LWC V2.00 B2112,2013-04-07 11:50:00,
2013-04-07 07:55:00,29.8,19.1,30.27,SE,138,0.0,0.0,64,0.00,,,0.00,LWC V2.00 B2112,2013-04-07 11:55:00,
2013-04-07 08:00:00,30.2,19.5,30.26,SE,136,1.0,2.0,64,0.00,,,0.00,LWC V2.00 B2112,2013-04-07 12:00:00,
2013-04-07 08:05:00,30.5,19.8,30.26,SE,135,0.0,0.0,64,0.00,,,0.00,LWC V2.00 B2112,2013-04-07 12:05:00,
2013-04-07 08:10:00,31.1,20.0,30.26,SE,135,0.0,0.0,63,0.00,,,0.00,LWC V2.00 B2112,2013-04-07 12:10:00,
2013-04-07 08:15:00,31.5,20.0,30.26,East,98,0.0,1.0,62,0.00,,,0.00,LWC V2.00 B2112,2013-04-07 12:15:00,
2013-04-07 08:20:00,31.9,20.4,30.26,East,99,0.0,0.0,62,0.00,,,0.00,LWC V2.00 B2112,2013-04-07 12:20:00,
2013-04-07 08:25:00,32.5,20.6,30.26,East,99,0.0,0.0,61,0.00,,,0.00,LWC V2.00 B2112,2013-04-07 12:25:00,
2013-04-07 08:30:00,33.1,20.7,30.25,ESE,113,0.0,2.0,60,0.00,,,0.00,LWC V2.00 B2112,2013-04-07 12:30:00,
2013-04-07 08:35:00,33.7,21.3,30.25,ESE,112,0.0,0.0,60,0.00,,,0.00,LWC V2.00 B2112,2013-04-07 12:35:00,
2013-04-07 08:40:00,34.2,21.4,30.25,ESE,111,0.0,1.0,59,0.00,,,0.00,LWC V2.00 B2112,2013-04-07 12:40:00,
2013-04-07 08:45:00,34.4,21.6,30.25,SE,144,1.0,2.0,59,0.00,,,0.00,LWC V2.00 B2112,2013-04-07 12:45:00,
2013-04-07 08:50:00,34.3,21.9,30.25,SSE,147,0.0,0.0,60,0.00,,,0.00,LWC V2.00 B2112,2013-04-07 12:50:00,
2013-04-07 08:55:00,34.4,22.0,30.25,SSE,148,0.0,0.0,60,0.00,,,0.00,LWC V2.00 B2112,2013-04-07 12:55:00,
2013-04-07 09:00:00,34.5,23.2,30.24,SE,142,1.0,2.0,63,0.00,,,0.00,LWC V2.00 B2112,2013-04-07 13:00:00,
2013-04-07 09:05:00,34.6,24.1,30.24,SE,134,2.0,4.0,65,0.00,,,0.00,LWC V2.00 B2112,2013-04-07 13:05:00,
2013-04-07 09:10:00,34.9,25.4,30.24,SE,144,1.0,5.0,68,0.00,,,0.00,LWC V2.00 B2112,2013-04-07 13:10:00,
2013-04-07 09:15:00,35.0,25.5,30.23,SE,138,4.0,5.0,68,0.00,,,0.00,LWC V2.00 B2112,2013-04-07 13:15:00,
2013-04-07 09:20:00,35.0,25.9,30.23,SE,136,4.0,9.0,69,0.00,,,0.00,LWC V2.00 B2112,2013-04-07 13:20:00,
2013-04-07 09:25:00,35.0,25.9,30.22,SE,133,6.0,8.0,69,0.00,,,0.00,LWC V2.00 B2112,2013-04-07 13:25:00,
2013-04-07 09:30:00,35.1,26.0,30.22,SSE,153,3.0,7.0,69,0.00,,,0.00,LWC V2.00 B2112,2013-04-07 13:30:00,
2013-04-07 09:35:00,35.2,26.1,30.22,SE,143,3.0,5.0,69,0.00,,,0.00,LWC V2.00 B2112,2013-04-07 13:35:00,
2013-04-07 09:40:00,35.5,26.4,30.22,SE,144,5.0,6.0,69,0.00,,,0.00,LWC V2.00 B2112,2013-04-07 13:40:00,
2013-04-07 09:45:00,35.8,27.0,30.22,SSW,210,0.0,3.0,70,0.00,,,0.00,LWC V2.00 B2112,2013-04-07 13:45:00,
2013-04-07 09:50:00,36.2,27.4,30.22,SSE,165,1.0,4.0,70,0.00,,,0.00,LWC V2.00 B2112,2013-04-07 13:50:00,
2013-04-07 09:55:00,36.6,27.4,30.22,SE,128,3.0,5.0,69,0.00,,,0.00,LWC V2.00 B2112,2013-04-07 13:55:00,
2013-04-07 10:00:00,37.0,27.8,30.21,SE,132,6.0,8.0,69,0.00,,,0.00,LWC V2.00 B2112,2013-04-07 14:00:00,
2013-04-07 10:05:00,37.6,28.4,30.21,WNW,291,3.0,7.0,69,0.00,,,0.00,LWC V2.00 B2112,2013-04-07 14:05:00,
2013-04-07 10:10:00,38.4,28.4,30.21,SE,144,6.0,10.0,67,0.00,,,0.00,LWC V2.00 B2112,2013-04-07 14:10:00,
2013-04-07 10:15:00,39.0,29.0,30.21,SSE,155,7.0,12.0,67,0.00,,,0.00,LWC V2.00 B2112,2013-04-07 14:15:00,
2013-04-07 10:20:00,39.3,28.5,30.21,SE,138,9.0,14.0,65,0.00,,,0.00,LWC V2.00 B2112,2013-04-07 14:20:00,
2013-04-07 10:25:00,39.7,28.9,30.21,SE,128,7.0,12.0,65,0.00,,,0.00,LWC V2.00 B2112,2013-04-07 14:25:00,
2013-04-07 10:30:00,40.4,28.4,30.20,SE,145,11.0,14.0,62,0.00,,,0.00,LWC V2.00 B2112,2013-04-07 14:30:00,
2013-04-07 10:35:00,40.7,28.3,30.20,SSE,158,6.0,12.0,61,0.00,,,0.00,LWC V2.00 B2112,2013-04-07 14:35:00,
2013-04-07 10:40:00,41.2,28.4,30.19,SSE,152,5.0,13.0,60,0.00,,,0.00,LWC V2.00 B2112,2013-04-07 14:40:00,
2013-04-07 10:45:00,42.1,28.0,30.19,SSE,149,11.0,12.0,57,0.00,,,0.00,LWC V2.00 B2112,2013-04-07 14:45:00,
2013-04-07 10:50:00,42.6,27.6,30.18,SE,138,6.0,16.0,55,0.00,,,0.00,LWC V2.00 B2112,2013-04-07 14:50:00,
2013-04-07 10:55:00,43.5,27.5,30.18,ESE,118,8.0,15.0,53,0.00,,,0.00,LWC V2.00 B2112,2013-04-07 14:55:00,
2013-04-07 11:00:00,43.4,27.0,30.18,SE,140,7.0,11.0,52,0.00,,,0.00,LWC V2.00 B2112,2013-04-07 15:00:00,
2013-04-07 11:05:00,44.7,26.2,30.17,SE,138,16.0,21.0,48,0.00,,,0.00,LWC V2.00 B2112,2013-04-07 15:05:00,
2013-04-07 11:10:00,45.7,25.6,30.17,ESE,111,9.0,18.0,45,0.00,,,0.00,LWC V2.00 B2112,2013-04-07 15:10:00,
2013-04-07 11:15:00,46.4,25.7,30.17,ESE,107,9.0,16.0,44,0.00,,,0.00,LWC V2.00 B2112,2013-04-07 15:15:00,
2013-04-07 11:20:00,47.0,25.1,30.16,SSE,148,9.0,14.0,42,0.00,,,0.00,LWC V2.00 B2112,2013-04-07 15:20:00,
2013-04-07 11:25:00,47.3,25.4,30.16,ESE,123,10.0,14.0,42,0.00,,,0.00,LWC V2.00 B2112,2013-04-07 15:25:00,
2013-04-07 11:30:00,47.3,24.8,30.16,SE,128,13.0,19.0,41,0.00,,,0.00,LWC V2.00 B2112,2013-04-07 15:30:00,
2013-04-07 11:35:00,47.5,25.0,30.15,SE,128,9.0,18.0,41,0.00,,,0.00,LWC V2.00 B2112,2013-04-07 15:35:00,
2013-04-07 11:40:00,48.2,25.6,30.14,SE,137,4.0,15.0,41,0.00,,,0.00,LWC V2.00 B2112,2013-04-07 15:40:00,
2013-04-07 11:45:00,49.1,25.8,30.14,SSE,154,8.0,20.0,40,0.00,,,0.00,LWC V2.00 B2112,2013-04-07 15:45:00,
2013-04-07 11:50:00,49.4,24.9,30.13,ESE,123,11.0,21.0,38,0.00,,,0.00,LWC V2.00 B2112,2013-04-07 15:50:00,
2013-04-07 11:56:00,49.7,24.5,30.13,East,84,8.0,16.0,37,0.00,,,0.00,LWC V2.00 B2112,2013-04-07 15:56:00,
2013-04-07 12:01:00,49.4,23.6,30.13,SE,141,10.0,30.0,36,0.00,,,0.00,LWC V2.00 B2112,2013-04-07 16:01:00,
2013-04-07 12:05:00,48.9,23.8,30.12,SE,133,10.0,21.0,37,0.00,,,0.00,LWC V2.00 B2112,2013-04-07 16:05:00,
2013-04-07 12:10:00,49.3,24.1,30.11,SE,124,12.0,17.0,37,0.00,,,0.00,LWC V2.00 B2112,2013-04-07 16:10:00,
2013-04-07 12:15:00,49.7,24.5,30.11,SSW,204,4.0,22.0,37,0.00,,,0.00,LWC V2.00 B2112,2013-04-07 16:15:00,
2013-04-07 12:20:00,50.1,24.9,30.11,ESE,122,11.0,14.0,37,0.00,,,0.00,LWC V2.00 B2112,2013-04-07 16:20:00,
2013-04-07 12:26:00,50.2,24.9,30.10,South,190,22.0,32.0,37,0.00,,,0.00,LWC V2.00 B2112,2013-04-07 16:26:00,
2013-04-07 12:31:00,50.3,25.7,30.10,SSE,156,9.0,17.0,38,0.00,,,0.00,LWC V2.00 B2112,2013-04-07 16:31:00,
2013-04-07 12:36:00,50.8,26.1,30.10,ESE,120,13.0,22.0,38,0.00,,,0.00,LWC V2.00 B2112,2013-04-07 16:36:00,
2013-04-07 12:41:00,50.7,26.0,30.09,SE,140,8.0,17.0,38,0.00,,,0.00,LWC V2.00 B2112,2013-04-07 16:41:00,
2013-04-07 12:46:00,50.7,26.0,30.08,ESE,120,13.0,25.0,38,0.00,,,0.00,LWC V2.00 B2112,2013-04-07 16:46:00,
2013-04-07 12:51:00,50.3,26.3,30.08,East,91,3.0,19.0,39,0.00,,,0.00,LWC V2.00 B2112,2013-04-07 16:51:00,
2013-04-07 12:56:00,50.1,26.1,30.09,SSW,196,12.0,13.0,39,0.00,,,0.00,LWC V2.00 B2112,2013-04-07 16:56:00,
2013-04-07 13:01:00,50.3,26.3,30.08,ESE,122,10.0,23.0,39,0.00,,,0.00,LWC V2.00 B2112,2013-04-07 17:01:00,
2013-04-07 13:06:00,50.9,26.8,30.08,SE,136,16.0,19.0,39,0.00,,,0.00,LWC V2.00 B2112,2013-04-07 17:06:00,
2013-04-07 13:11:00,51.8,27.6,30.07,SE,136,13.0,17.0,39,0.00,,,0.00,LWC V2.00 B2112,2013-04-07 17:11:00,
2013-04-07 13:16:00,52.5,27.6,30.07,SE,134,17.0,25.0,38,0.00,,,0.00,LWC V2.00 B2112,2013-04-07 17:16:00,
2013-04-07 13:21:00,52.8,27.3,30.06,SE,145,16.0,24.0,37,0.00,,,0.00,LWC V2.00 B2112,2013-04-07 17:21:00,
2013-04-07 13:26:00,53.2,26.9,30.06,SE,132,19.0,19.0,36,0.00,,,0.00,LWC V2.00 B2112,2013-04-07 17:26:00,
2013-04-07 13:31:00,53.8,28.1,30.06,SSE,151,15.0,17.0,37,0.00,,,0.00,LWC V2.00 B2112,2013-04-07 17:31:00,
2013-04-07 13:36:00,53.6,28.0,30.05,SE,138,10.0,20.0,37,0.00,,,0.00,LWC V2.00 B2112,2013-04-07 17:36:00,
2013-04-07 13:41:00,53.5,27.9,30.05,SE,142,8.0,23.0,37,0.00,,,0.00,LWC V2.00 B2112,2013-04-07 17:41:00,
2013-04-07 13:46:00,54.0,28.3,30.05,SE,144,12.0,28.0,37,0.00,,,0.00,LWC V2.00 B2112,2013-04-07 17:46:00,
2013-04-07 13:51:00,54.1,28.4,30.04,SSE,159,15.0,30.0,37,0.00,,,0.00,LWC V2.00 B2112,2013-04-07 17:51:00,
2013-04-07 13:56:00,53.7,28.1,30.04,SSE,154,4.0,20.0,37,0.00,,,0.00,LWC V2.00 B2112,2013-04-07 17:56:00,
2013-04-07 14:01:00,54.0,27.7,30.04,SSE,166,3.0,18.0,36,0.00,,,0.00,LWC V2.00 B2112,2013-04-07 18:01:00,
2013-04-07 14:06:00,54.7,27.6,30.03,SE,130,5.0,19.0,35,0.00,,,0.00,LWC V2.00 B2112,2013-04-07 18:06:00,
2013-04-07 14:11:00,55.3,28.8,30.03,NW,311,5.0,22.0,36,0.00,,,0.00,LWC V2.00 B2112,2013-04-07 18:11:00,
2013-04-07 14:16:00,55.1,27.9,30.03,SE,146,11.0,25.0,35,0.00,,,0.00,LWC V2.00 B2112,2013-04-07 18:16:00,
2013-04-07 14:21:00,55.0,29.9,30.03,SE,139,6.0,17.0,38,0.00,,,0.00,LWC V2.00 B2112,2013-04-07 18:21:00,
2013-04-07 14:26:00,55.3,30.1,30.02,South,176,15.0,20.0,38,0.00,,,0.00,LWC V2.00 B2112,2013-04-07 18:26:00,
2013-04-07 14:31:00,56.0,30.1,30.02,SSE,151,4.0,12.0,37,0.00,,,0.00,LWC V2.00 B2112,2013-04-07 18:31:00,
2013-04-07 14:36:00,56.2,28.9,30.02,SW,224,8.0,26.0,35,0.00,,,0.00,LWC V2.00 B2112,2013-04-07 18:36:00,
2013-04-07 14:41:00,56.6,30.0,30.02,SW,219,7.0,18.0,36,0.00,,,0.00,LWC V2.00 B2112,2013-04-07 18:41:00,
2013-04-07 14:46:00,56.3,29.0,30.02,NW,318,4.0,17.0,35,0.00,,,0.00,LWC V2.00 B2112,2013-04-07 18:46:00,
2013-04-07 14:51:00,56.2,29.6,30.01,South,182,15.0,23.0,36,0.00,,,0.00,LWC V2.00 B2112,2013-04-07 18:51:00,
2013-04-07 14:56:00,55.5,29.7,30.00,ESE,120,10.0,27.0,37,0.00,,,0.00,LWC V2.00 B2112,2013-04-07 18:56:00,
2013-04-07 15:01:00,55.7,30.5,30.00,SSE,150,20.0,22.0,38,0.00,,,0.00,LWC V2.00 B2112,2013-04-07 19:01:00,
2013-04-07 15:06:00,54.9,29.8,30.00,SE,130,16.0,26.0,38,0.00,,,0.00,LWC V2.00 B2112,2013-04-07 19:06:00,
2013-04-07 15:11:00,54.7,30.2,30.00,East,101,7.0,16.0,39,0.00,,,0.00,LWC V2.00 B2112,2013-04-07 19:11:00,
2013-04-07 15:16:00,55.0,30.5,30.00,South,186,10.0,21.0,39,0.00,,,0.00,LWC V2.00 B2112,2013-04-07 19:16:00,
2013-04-07 15:21:00,54.9,30.4,29.99,SE,128,16.0,21.0,39,0.00,,,0.00,LWC V2.00 B2112,2013-04-07 19:21:00,
2013-04-07 15:26:00,54.8,30.3,29.98,ESE,123,9.0,17.0,39,0.00,,,0.00,LWC V2.00 B2112,2013-04-07 19:26:00,
2013-04-07 15:31:00,54.9,30.4,29.98,ESE,109,11.0,19.0,39,0.00,,,0.00,LWC V2.00 B2112,2013-04-07 19:31:00,
2013-04-07 15:36:00,55.1,30.0,29.98,SW,219,8.0,13.0,38,0.00,,,0.00,LWC V2.00 B2112,2013-04-07 19:36:00,
2013-04-07 15:42:00,55.5,30.3,29.97,SSE,153,24.0,28.0,38,0.00,,,0.00,LWC V2.00 B2112,2013-04-07 19:42:00,
2013-04-07 15:47:00,54.8,30.3,29.95,ESE,116,17.0,29.0,39,0.00,,,0.00,LWC V2.00 B2112,2013-04-07 19:47:00,
2013-04-07 15:52:00,55.1,30.6,29.94,SW,226,11.0,21.0,39,0.00,,,0.00,LWC V2.00 B2112,2013-04-07 19:52:00,
2013-04-07 15:57:00,55.0,31.1,29.94,SE,137,17.0,23.0,40,0.00,,,0.00,LWC V2.00 B2112,2013-04-07 19:57:00,
2013-04-07 16:02:00,54.6,31.4,29.94,SE,140,11.0,11.0,41,0.00,,,0.00,LWC V2.00 B2112,2013-04-07 20:02:00,
2013-04-07 16:07:00,54.5,30.7,29.94,ESE,109,21.0,21.0,40,0.00,,,0.00,LWC V2.00 B2112,2013-04-07 20:07:00,
2013-04-07 16:12:00,54.3,31.1,29.94,SE,138,6.0,14.0,41,0.00,,,0.00,LWC V2.00 B2112,2013-04-07 20:12:00,
2013-04-07 16:17:00,54.5,31.3,29.95,SE,128,3.0,23.0,41,0.00,,,0.00,LWC V2.00 B2112,2013-04-07 20:17:00,
2013-04-07 16:22:00,55.0,31.7,29.96,ESE,121,13.0,16.0,41,0.00,,,0.00,LWC V2.00 B2112,2013-04-07 20:22:00,
2013-04-07 16:27:00,55.3,31.4,29.98,SSW,205,1.0,8.0,40,0.00,,,0.00,LWC V2.00 B2112,2013-04-07 20:27:00,
2013-04-07 16:32:00,55.2,31.3,29.98,SE,124,15.0,19.0,40,0.00,,,0.00,LWC V2.00 B2112,2013-04-07 20:32:00,
2013-04-07 16:37:00,54.8,31.6,29.97,SE,138,5.0,13.0,41,0.00,,,0.00,LWC V2.00 B2112,2013-04-07 20:37:00,
2013-04-07 16:42:00,54.6,31.4,29.97,SE,136,6.0,15.0,41,0.00,,,0.00,LWC V2.00 B2112,2013-04-07 20:42:00,
2013-04-07 16:47:00,54.5,31.3,29.95,ESE,106,8.0,15.0,41,0.00,,,0.00,LWC V2.00 B2112,2013-04-07 20:47:00,
2013-04-07 16:52:00,54.2,31.6,29.94,SE,136,15.0,19.0,42,0.00,,,0.00,LWC V2.00 B2112,2013-04-07 20:52:00,
2013-04-07 16:57:00,54.2,31.6,29.94,ESE,121,16.0,20.0,42,0.00,,,0.00,LWC V2.00 B2112,2013-04-07 20:57:00,
2013-04-07 17:02:00,54.0,31.4,29.94,SE,134,10.0,21.0,42,0.00,,,0.00,LWC V2.00 B2112,2013-04-07 21:02:00,
2013-04-07 17:07:00,53.6,31.1,29.94,SE,140,6.0,23.0,42,0.00,,,0.00,LWC V2.00 B2112,2013-04-07 21:07:00,
2013-04-07 17:12:00,53.6,31.1,29.94,SSE,148,9.0,17.0,42,0.00,,,0.00,LWC V2.00 B2112,2013-04-07 21:12:00,
2013-04-07 17:17:00,53.5,31.0,29.95,SSW,213,8.0,9.0,42,0.00,,,0.00,LWC V2.00 B2112,2013-04-07 21:17:00,
2013-04-07 17:22:00,53.5,31.6,29.95,SSE,165,8.0,24.0,43,0.00,,,0.00,LWC V2.00 B2112,2013-04-07 21:22:00,
2013-04-07 17:27:00,53.3,31.4,29.96,SE,140,8.0,24.0,43,0.00,,,0.00,LWC V2.00 B2112,2013-04-07 21:27:00,
2013-04-07 17:32:00,53.1,31.2,29.99,South,174,2.0,11.0,43,0.00,,,0.00,LWC V2.00 B2112,2013-04-07 21:32:00,
2013-04-07 17:37:00,53.2,31.3,29.99,SSE,155,6.0,8.0,43,0.00,,,0.00,LWC V2.00 B2112,2013-04-07 21:37:00,
2013-04-07 17:42:00,53.1,31.2,29.99,SE,136,4.0,17.0,43,0.00,,,0.00,LWC V2.00 B2112,2013-04-07 21:42:00,
2013-04-07 17:47:00,52.9,32.1,29.98,SE,140,14.0,14.0,45,0.00,,,0.00,LWC V2.00 B2112,2013-04-07 21:47:00,
2013-04-07 17:52:00,52.5,32.9,29.98,South,188,6.0,12.0,47,0.00,,,0.00,LWC V2.00 B2112,2013-04-07 21:52:00,
2013-04-07 17:57:00,51.8,34.7,29.96,SSW,196,7.0,11.0,52,0.00,,,0.00,LWC V2.00 B2112,2013-04-07 21:57:00,
2013-04-07 18:02:00,50.8,36.1,29.97,SE,138,3.0,5.0,57,0.00,,,0.01,LWC V2.00 B2112,2013-04-07 22:02:00,
2013-04-07 18:07:00,49.7,38.8,29.97,SSW,196,3.0,4.0,66,0.08,,,0.01,LWC V2.00 B2112,2013-04-07 22:07:00,
2013-04-07 18:12:00,48.6,39.3,29.98,SW,216,0.0,1.0,70,0.08,,,0.02,LWC V2.00 B2112,2013-04-07 22:12:00,
2013-04-07 18:17:00,48.0,41.1,29.97,West,268,0.0,0.0,77,0.06,,,0.02,LWC V2.00 B2112,2013-04-07 22:17:00,
2013-04-07 18:22:00,47.6,41.7,29.98,SW,215,0.0,0.0,80,0.04,,,0.02,LWC V2.00 B2112,2013-04-07 22:22:00,
2013-04-07 18:27:00,47.6,40.8,29.98,SSE,150,0.0,4.0,77,0.00,,,0.02,LWC V2.00 B2112,2013-04-07 22:27:00,
2013-04-07 18:32:00,47.8,39.6,29.98,SW,219,4.0,4.0,73,0.00,,,0.02,LWC V2.00 B2112,2013-04-07 22:32:00,
2013-04-07 18:37:00,47.9,38.2,29.98,South,180,1.0,6.0,69,0.00,,,0.02,LWC V2.00 B2112,2013-04-07 22:37:00,
2013-04-07 18:42:00,48.0,38.0,29.98,SSW,196,0.0,3.0,68,0.00,,,0.02,LWC V2.00 B2112,2013-04-07 22:42:00,
2013-04-07 18:47:00,47.9,38.2,29.98,South,173,1.0,2.0,69,0.00,,,0.02,LWC V2.00 B2112,2013-04-07 22:47:00,
2013-04-07 18:52:00,48.0,38.3,29.98,South,187,1.0,3.0,69,0.00,,,0.02,LWC V2.00 B2112,2013-04-07 22:52:00,
2013-04-07 18:57:00,47.6,37.6,29.98,SSE,151,2.0,7.0,68,0.00,,,0.02,LWC V2.00 B2112,2013-04-07 22:57:00,
2013-04-07 19:02:00,47.5,37.5,29.98,SW,215,4.0,8.0,68,0.00,,,0.02,LWC V2.00 B2112,2013-04-07 23:02:00,
2013-04-07 19:07:00,47.6,38.3,29.98,SSE,150,2.0,2.0,70,0.00,,,0.02,LWC V2.00 B2112,2013-04-07 23:07:00,
2013-04-07 19:12:00,47.6,37.6,29.98,SE,128,1.0,5.0,68,0.00,,,0.02,LWC V2.00 B2112,2013-04-07 23:12:00,
2013-04-07 19:17:00,47.7,36.5,29.98,SW,227,4.0,10.0,65,0.00,,,0.02,LWC V2.00 B2112,2013-04-07 23:17:00,
2013-04-07 19:22:00,47.9,36.7,29.98,WSW,248,5.0,5.0,65,0.00,,,0.02,LWC V2.00 B2112,2013-04-07 23:22:00,
2013-04-07 19:27:00,47.8,36.2,29.97,South,190,6.0,7.0,64,0.00,,,0.02,LWC V2.00 B2112,2013-04-07 23:27:00,
2013-04-07 19:32:00,48.0,36.4,29.97,SE,139,7.0,10.0,64,0.00,,,0.02,LWC V2.00 B2112,2013-04-07 23:32:00,
2013-04-07 19:37:00,48.2,36.6,29.97,SW,233,1.0,1.0,64,0.00,,,0.02,LWC V2.00 B2112,2013-04-07 23:37:00,
2013-04-07 19:42:00,48.1,36.5,29.98,East,90,5.0,5.0,64,0.00,,,0.02,LWC V2.00 B2112,2013-04-07 23:42:00,
2013-04-07 19:47:00,47.9,36.3,29.97,SSE,155,0.0,5.0,64,0.00,,,0.02,LWC V2.00 B2112,2013-04-07 23:47:00,
2013-04-07 19:52:00,47.8,36.2,29.97,SW,221,2.0,7.0,64,0.00,,,0.02,LWC V2.00 B2112,2013-04-07 23:52:00,
2013-04-07 19:57:00,47.7,36.5,29.97,ESE,120,2.0,7.0,65,0.00,,,0.02,LWC V2.00 B2112,2013-04-07 23:57:00,
2013-04-07 20:02:00,47.8,36.6,29.97,SSE,151,2.0,8.0,65,0.00,,,0.02,LWC V2.00 B2112,2013-04-08 00:02:00,
2013-04-07 20:07:00,47.8,36.6,29.97,SW,222,2.0,8.0,65,0.00,,,0.02,LWC V2.00 B2112,2013-04-08 00:07:00,
2013-04-07 20:12:00,47.5,36.7,29.97,ESE,115,4.0,7.0,66,0.00,,,0.02,LWC V2.00 B2112,2013-04-08 00:12:00,
2013-04-07 20:17:00,47.6,36.8,29.97,SSE,159,2.0,8.0,66,0.00,,,0.02,LWC V2.00 B2112,2013-04-08 00:17:00,
2013-04-07 20:22:00,47.5,36.7,29.97,SE,128,0.0,8.0,66,0.00,,,0.02,LWC V2.00 B2112,2013-04-08 00:22:00,
2013-04-07 20:27:00,47.4,37.0,29.97,ESE,121,3.0,8.0,67,0.00,,,0.02,LWC V2.00 B2112,2013-04-08 00:27:00,
2013-04-07 20:32:00,47.3,36.9,29.97,SSE,151,0.0,5.0,67,0.00,,,0.02,LWC V2.00 B2112,2013-04-08 00:32:00,
2013-04-07 20:37:00,47.2,37.2,29.98,South,177,3.0,11.0,68,0.00,,,0.02,LWC V2.00 B2112,2013-04-08 00:37:00,
2013-04-07 20:42:00,47.0,37.4,29.98,SSE,153,1.0,7.0,69,0.00,,,0.02,LWC V2.00 B2112,2013-04-08 00:42:00,
2013-04-07 20:47:00,47.0,37.4,29.98,South,170,5.0,7.0,69,0.00,,,0.02,LWC V2.00 B2112,2013-04-08 00:47:00,
2013-04-07 20:52:00,47.1,37.5,29.98,SE,139,2.0,4.0,69,0.00,,,0.02,LWC V2.00 B2112,2013-04-08 00:52:00,
2013-04-07 20:57:00,47.1,37.5,29.98,SW,217,0.0,5.0,69,0.00,,,0.02,LWC V2.00 B2112,2013-04-08 00:57:00,
2013-04-07 21:02:00,46.9,37.3,29.98,SW,220,1.0,3.0,69,0.00,,,0.02,LWC V2.00 B2112,2013-04-08 01:02:00,
2013-04-07 21:08:00,46.7,37.4,29.99,SE,139,1.0,7.0,70,0.00,,,0.02,LWC V2.00 B2112,2013-04-08 01:08:00,
2013-04-07 21:13:00,46.6,37.7,29.99,SE,131,0.0,4.0,71,0.00,,,0.02,LWC V2.00 B2112,2013-04-08 01:13:00,
2013-04-07 21:18:00,46.5,37.6,29.99,SSE,165,0.0,3.0,71,0.00,,,0.02,LWC V2.00 B2112,2013-04-08 01:18:00,
2013-04-07 21:23:00,46.3,37.8,29.99,SSW,199,0.0,0.0,72,0.00,,,0.02,LWC V2.00 B2112,2013-04-08 01:23:00,
2013-04-07 21:28:00,46.0,37.8,29.98,SSW,193,0.0,6.0,73,0.00,,,0.02,LWC V2.00 B2112,2013-04-08 01:28:00,
2013-04-07 21:33:00,45.9,37.7,29.98,SSE,151,3.0,4.0,73,0.00,,,0.02,LWC V2.00 B2112,2013-04-08 01:33:00,
2013-04-07 21:38:00,45.8,38.0,29.98,South,189,0.0,4.0,74,0.00,,,0.02,LWC V2.00 B2112,2013-04-08 01:38:00,
2013-04-07 21:43:00,45.6,38.1,29.98,SE,133,2.0,5.0,75,0.00,,,0.02,LWC V2.00 B2112,2013-04-08 01:43:00,
2013-04-07 21:48:00,45.8,38.0,29.99,SSE,150,0.0,0.0,74,0.00,,,0.02,LWC V2.00 B2112,2013-04-08 01:48:00,
2013-04-07 21:53:00,45.8,38.3,29.99,SW,227,0.0,2.0,75,0.00,,,0.02,LWC V2.00 B2112,2013-04-08 01:53:00,
2013-04-07 21:58:00,45.8,38.3,29.99,SSW,193,1.0,5.0,75,0.00,,,0.02,LWC V2.00 B2112,2013-04-08 01:58:00,
2013-04-07 22:03:00,45.7,38.2,29.99,South,188,0.0,4.0,75,0.00,,,0.02,LWC V2.00 B2112,2013-04-08 02:03:00,
2013-04-07 22:08:00,45.5,38.4,29.99,SSE,149,0.0,4.0,76,0.00,,,0.02,LWC V2.00 B2112,2013-04-08 02:08:00,
2013-04-07 22:13:00,45.4,38.3,29.98,SSE,150,1.0,5.0,76,0.00,,,0.02,LWC V2.00 B2112,2013-04-08 02:13:00,
2013-04-07 22:18:00,45.4,38.6,29.98,SSW,198,0.0,4.0,77,0.00,,,0.02,LWC V2.00 B2112,2013-04-08 02:18:00,
2013-04-07 22:23:00,45.4,38.6,29.98,South,170,1.0,5.0,77,0.00,,,0.02,LWC V2.00 B2112,2013-04-08 02:23:00,
2013-04-07 22:28:00,45.3,38.9,29.98,SE,141,2.0,7.0,78,0.00,,,0.02,LWC V2.00 B2112,2013-04-08 02:28:00,
2013-04-07 22:33:00,45.4,38.9,29.98,SSE,147,1.0,4.0,78,0.00,,,0.02,LWC V2.00 B2112,2013-04-08 02:33:00,
2013-04-07 22:38:00,45.3,38.9,29.98,East,99,5.0,5.0,78,0.00,,,0.02,LWC V2.00 B2112,2013-04-08 02:38:00,
2013-04-07 22:43:00,45.3,38.9,29.98,South,174,2.0,8.0,78,0.00,,,0.02,LWC V2.00 B2112,2013-04-08 02:43:00,
2013-04-07 22:48:00,45.3,38.9,29.98,SSE,151,1.0,5.0,78,0.00,,,0.02,LWC V2.00 B2112,2013-04-08 02:48:00,
2013-04-07 22:53:00,45.2,38.8,29.98,South,173,0.0,3.0,78,0.00,,,0.02,LWC V2.00 B2112,2013-04-08 02:53:00,
2013-04-07 22:58:00,45.1,39.0,29.97,SSE,148,0.0,4.0,79,0.00,,,0.02,LWC V2.00 B2112,2013-04-08 02:58:00,
2013-04-07 23:03:00,45.0,38.9,29.97,South,169,0.0,2.0,79,0.00,,,0.02,LWC V2.00 B2112,2013-04-08 03:03:00,
2013-04-07 23:08:00,45.0,38.9,29.98,SE,132,2.0,4.0,79,0.00,,,0.02,LWC V2.00 B2112,2013-04-08 03:08:00,
2013-04-07 23:13:00,45.1,39.3,29.98,South,169,2.0,3.0,80,0.00,,,0.02,LWC V2.00 B2112,2013-04-08 03:13:00,
2013-04-07 23:18:00,45.0,39.2,29.98,SSW,202,3.0,5.0,80,0.00,,,0.02,LWC V2.00 B2112,2013-04-08 03:18:00,
2013-04-07 23:23:00,45.0,39.2,29.97,SSW,209,0.0,2.0,80,0.00,,,0.02,LWC V2.00 B2112,2013-04-08 03:23:00,
2013-04-07 23:28:00,44.9,39.1,29.97,SSE,157,1.0,2.0,80,0.00,,,0.02,LWC V2.00 B2112,2013-04-08 03:28:00,
2013-04-07 23:33:00,44.7,39.2,29.97,SSE,148,0.0,6.0,81,0.00,,,0.02,LWC V2.00 B2112,2013-04-08 03:33:00,
2013-04-07 23:38:00,44.7,39.2,29.97,South,182,3.0,3.0,81,0.00,,,0.02,LWC V2.00 B2112,2013-04-08 03:38:00,
2013-04-07 23:43:00,44.8,39.3,29.97,SE,138,1.0,7.0,81,0.00,,,0.02,LWC V2.00 B2112,2013-04-08 03:43:00,
2013-04-07 23:48:00,44.7,39.2,29.97,SE,140,1.0,3.0,81,0.00,,,0.02,LWC V2.00 B2112,2013-04-08 03:48:00,
2013-04-07 23:53:00,44.6,39.5,29.97,SE,143,3.0,5.0,82,0.00,,,0.02,LWC V2.00 B2112,2013-04-08 03:53:00,
2013-04-07 23:58:00,44.6,39.5,29.97,South,181,0.0,2.0,82,0.00,,,0.02,LWC V2.00 B2112,2013-04-08 03:58:00,